TimeEST,TemperatureF,Dew PointF,Humidity,Sea Level PressureIn,VisibilityMPH,Wind Direction,Wind SpeedMPH,Gust SpeedMPH,PrecipitationIn,Events,Conditions,WindDirDegrees,DateUTC
12:53 AM,30.0,19.0,64,30.07,10.0,NNW,5.8,-,N/A,,Clear,340,2012-11-25 05:53:00
1:53 AM,28.9,18.0,64,30.06,10.0,Calm,Calm,-,N/A,,Clear,0,2012-11-25 06:53:00
2:53 AM,27.0,18.0,69,30.07,10.0,West,3.5,-,N/A,,Clear,260,2012-11-25 07:53:00
3:53 AM,27.0,19.0,72,30.07,10.0,Calm,Calm,-,N/A,,Clear,0,2012-11-25 08:53:00
4:53 AM,28.0,18.0,66,30.08,10.0,Calm,Calm,-,N/A,,Clear,0,2012-11-25 09:53:00
5:53 AM,26.1,18.0,71,30.09,10.0,Calm,Calm,-,N/A,,Clear,0,2012-11-25 10:53:00
6:53 AM,27.0,18.0,69,30.12,10.0,Calm,Calm,-,N/A,,Clear,0,2012-11-25 11:53:00
7:53 AM,27.0,18.0,69,30.13,10.0,Calm,Calm,-,N/A,,Clear,0,2012-11-25 12:53:00
8:53 AM,33.1,21.0,61,30.14,10.0,South,5.8,-,N/A,,Clear,180,2012-11-25 13:53:00
9:53 AM,37.9,19.9,48,30.12,10.0,South,10.4,16.1,N/A,,Clear,190,2012-11-25 14:53:00
10:53 AM,42.1,19.9,41,30.12,10.0,SW,8.1,-,N/A,,Clear,220,2012-11-25 15:53:00
11:53 AM,44.1,19.0,37,30.08,10.0,Variable,5.8,-,N/A,,Clear,0,2012-11-25 16:53:00
12:53 PM,48.0,19.0,32,30.04,10.0,SW,6.9,-,N/A,,Clear,220,2012-11-25 17:53:00
1:53 PM,51.1,17.1,26,30.01,10.0,SSW,9.2,-,N/A,,Clear,210,2012-11-25 18:53:00
2:53 PM,52.0,18.0,26,29.99,10.0,South,8.1,-,N/A,,Clear,190,2012-11-25 19:53:00
3:53 PM,51.1,18.0,27,29.99,10.0,SSW,9.2,-,N/A,,Clear,200,2012-11-25 20:53:00
4:53 PM,50.0,19.0,29,30.00,10.0,South,8.1,-,N/A,,Clear,190,2012-11-25 21:53:00
5:53 PM,46.9,19.0,33,30.01,10.0,South,3.5,-,N/A,,Clear,190,2012-11-25 22:53:00
6:53 PM,45.0,19.0,36,30.04,10.0,SSW,3.5,-,N/A,,Clear,200,2012-11-25 23:53:00
7:53 PM,43.0,19.9,40,30.06,10.0,Calm,Calm,-,N/A,,Clear,0,2012-11-26 00:53:00
8:53 PM,41.0,21.0,45,30.06,10.0,SSW,3.5,-,N/A,,Clear,200,2012-11-26 01:53:00
9:53 PM,39.9,19.9,45,30.05,10.0,SW,4.6,-,N/A,,Clear,220,2012-11-26 02:53:00
10:53 PM,35.1,21.9,59,30.05,10.0,Calm,Calm,-,N/A,,Clear,0,2012-11-26 03:53:00
11:53 PM,34.0,23.0,64,30.05,10.0,Calm,Calm,-,N/A,,Clear,0,2012-11-26 04:53:00